Time;durP1;ratioP1;P1;durP2;ratioP2;P2;SDS_P1;SDS_P2;PMS_P1;PMS_P2;Temp;Humidity;BMP_temperature;BMP_pressure;BME280_temperature;BME280_humidity;BME280_pressure;Samples;Min_cycle;Max_cycle;Signal;HPM_P1;HPM_P2
2022/05/20 01:01:59;;;;;;;;;;;;;;;;;;;;;
2022/05/20 01:21:15;;;;;;;;;;;;;;;;;;;;;
2022/05/20 02:35:14;;;;;;;45.42;39.88;;;;;;;10.75;100.00;101976.03;6536120;22;20023;-84
2022/05/20 03:16:41;;;;;;;45.25;40.60;;;;;;;10.45;100.00;101941.13;6111286;24;20530;-81
2022/05/20 03:19:13;;;;;;;45.25;40.58;;;;;;;10.42;100.00;101950.63;6157998;24;20029;-80
2022/05/20 03:21:45;;;;;;;47.05;41.65;;;;;;;10.52;100.00;101958.53;6137188;24;20797;-82
2022/05/20 03:24:16;;;;;;;51.40;41.20;;;;;;;10.53;100.00;101957.66;6124338;24;20016;-80
2022/05/20 03:26:48;;;;;;;47.00;41.97;;;;;;;10.45;100.00;101954.16;6174344;24;20009;-82
2022/05/20 03:29:19;;;;;;;46.47;41.57;;;;;;;10.47;100.00;101947.19;6228112;23;20068;-81
2022/05/20 03:31:51;;;;;;;46.50;41.57;;;;;;;10.48;100.00;101948.97;6252560;23;20004;-82
2022/05/20 03:34:22;;;;;;;47.33;42.33;;;;;;;10.46;100.00;101944.59;6379033;22;20018;-83
2022/05/20 03:36:55;;;;;;;50.30;44.90;;;;;;;10.47;100.00;101941.13;6532107;22;20076;-82
2022/05/20 03:39:26;;;;;;;54.00;43.92;;;;;;;10.45;100.00;101946.31;6531595;22;20003;-81
2022/05/20 03:41:58;;;;;;;50.97;45.43;;;;;;;10.42;100.00;101942.81;6531725;22;20489;-82
2022/05/20 03:44:30;;;;;;;52.80;47.23;;;;;;;10.53;100.00;101954.19;6531237;22;20004;-81
2022/05/20 03:47:02;;;;;;;52.93;45.77;;;;;;;10.56;100.00;101946.38;6533601;22;19999;-81
2022/05/20 03:49:34;;;;;;;;;;;;;;;10.70;100.00;101946.47;6533857;22;20000;-82
2022/05/20 03:52:06;;;;;;;54.30;45.10;;;;;;;10.83;100.00;101924.78;6504777;22;19907;-81
2022/05/20 03:54:38;;;;;;;57.33;47.90;;;;;;;10.85;100.00;101925.69;6531601;22;20007;-82
2022/05/20 03:57:10;;;;;;;53.25;47.53;;;;;;;10.81;100.00;101938.69;6531616;22;20007;-82
2022/05/20 03:59:42;;;;;;;57.80;47.90;;;;;;;10.81;100.00;101930.88;6531108;22;20011;-81
2022/05/20 04:02:14;;;;;;;57.73;48.13;;;;;;;10.71;100.00;101919.53;6531363;22;20062;-82
2022/05/20 04:04:50;;;;;;;53.00;47.35;;;;;;;10.74;100.00;101915.19;6531574;22;20015;-82
2022/05/20 04:07:23;;;;;;;59.17;47.50;;;;;;;10.63;100.00;101916.00;6532164;22;20008;-81
2022/05/20 04:09:55;;;;;;;56.40;49.13;;;;;;;10.45;100.00;101917.66;6532198;22;20356;-83
2022/05/20 04:12:34;;;;;;;57.80;46.73;;;;;;;10.58;100.00;101905.56;6504320;22;20010;-83
2022/05/20 04:15:07;;;;;;;54.25;46.70;;;;;;;10.54;100.00;101919.44;6532268;22;20103;-84
2022/05/20 04:17:39;;;;;;;52.50;45.58;;;;;;;10.48;100.00;101909.84;6531109;22;20019;-80
2022/05/20 04:20:11;;;;;;;53.20;47.37;;;;;;;10.48;100.00;101908.97;6531921;22;20421;-83
2022/05/20 04:22:42;;;;;;;54.23;48.43;;;;;;;10.40;100.00;101901.13;6532167;22;20614;-82
2022/05/20 04:25:14;;;;;;;59.73;51.30;;;;;;;10.45;100.00;101898.50;6531188;22;20028;-81
2022/05/20 04:27:45;;;;;;;55.53;49.03;;;;;;;10.54;100.00;101909.84;6531368;22;20465;-81
2022/05/20 04:30:16;;;;;;;59.93;49.10;;;;;;;10.56;100.00;101900.34;6534057;22;20003;-80
2022/05/20 04:32:48;;;;;;;59.67;50.37;;;;;;;10.62;100.00;101911.66;6531968;22;19996;-82
2022/05/20 04:35:19;;;;;;;58.90;52.20;;;;;;;10.62;100.00;101915.13;6531001;22;20012;-81
2022/05/20 04:37:51;;;;;;;60.70;52.70;;;;;;;10.64;100.00;101905.59;6505261;22;20081;-82
2022/05/20 04:40:22;;;;;;;60.80;53.13;;;;;;;10.67;100.00;101909.94;6532434;22;20014;-82
2022/05/20 04:48:34;;;;;;;80.40;62.47;;;;;;;10.88;100.00;101919.59;6531629;22;20016;-82
2022/05/20 04:51:05;;;;;;;80.53;61.85;;;;;;;10.85;100.00;101920.47;6532220;22;20086;-83
2022/05/20 04:56:26;;;;;;;85.80;61.15;;;;;;;11.00;100.00;101937.06;6532126;22;20011;-82
2022/05/20 04:58:58;;;;;;;86.80;63.07;;;;;;;11.06;100.00;101934.44;6533243;22;20035;-83
2022/05/20 05:01:29;;;;;;;83.80;62.57;;;;;;;11.21;100.00;101933.63;6533369;22;20174;-84
2022/05/20 05:04:01;;;;;;;82.43;63.70;;;;;;;11.42;100.00;101938.03;6536407;22;20003;-83
2022/05/20 05:06:32;;;;;;;82.53;62.70;;;;;;;11.70;100.00;101935.47;6536206;22;20003;-83
2022/05/20 05:09:04;;;;;;;85.00;63.17;;;;;;;11.81;100.00;101931.13;6509647;22;20078;-82
2022/05/20 05:11:39;;;;;;;80.13;60.00;;;;;;;11.97;100.00;101932.88;6536408;22;20452;-84
2022/05/20 05:14:13;;;;;;;69.47;56.85;;;;;;;12.17;100.00;101932.00;6536074;22;20010;-84
2022/05/20 05:16:45;;;;;;;73.47;56.13;;;;;;;12.17;100.00;101930.28;6536671;22;20031;-84
2022/05/20 05:19:16;;;;;;;65.97;53.53;;;;;;;12.44;100.00;101931.09;6537295;22;20008;-84
2022/05/20 05:21:48;;;;;;;61.45;53.80;;;;;;;12.53;100.00;101935.44;6537190;22;20002;-85
2022/05/20 05:24:20;;;;;;;57.90;51.77;;;;;;;12.52;100.00;101931.94;6511195;22;20413;-85
2022/05/20 05:26:55;;;;;;;54.58;48.35;;;;;;;12.59;100.00;101935.44;6510113;22;20246;-84
2022/05/20 05:29:27;;;;;;;54.35;48.50;;;;;;;12.58;100.00;101937.16;6537831;22;20299;-83
2022/05/20 05:31:59;;;;;;;51.47;46.08;;;;;;;12.65;100.00;101932.78;6538895;22;20018;-85
2022/05/20 05:34:33;;;;;;;51.65;46.58;;;;;;;12.74;100.00;101930.13;6535480;22;20026;-84
2022/05/20 05:37:05;;;;;;;51.83;46.45;;;;;;;12.69;100.00;101920.59;6508615;22;20353;-84
2022/05/20 05:39:37;;;;;;;53.53;47.83;;;;;;;12.65;100.00;101906.63;6508620;22;20014;-84
2022/05/20 05:42:08;;;;;;;53.85;48.22;;;;;;;12.65;100.00;101911.00;6509293;22;20072;-85
2022/05/20 05:44:40;;;;;;;51.97;46.67;;;;;;;12.86;100.00;101905.66;6510029;22;20472;-85
2022/05/20 05:47:11;;;;;;;52.43;47.27;;;;;;;12.91;100.00;101900.41;6511202;22;19996;-85
2022/05/20 05:49:43;;;;;;;54.00;48.17;;;;;;;13.07;100.00;101904.72;6511492;22;20495;-86
2022/05/20 05:52:14;;;;;;;50.47;45.50;;;;;;;13.36;100.00;101911.53;6511944;22;20011;-86
2022/05/20 06:32:15;;;;;;;;;;;;;;;;;;;;;
2022/05/20 06:46:57;;;;;;;20.20;17.90;;;;;;;15.36;90.08;101863.97;4251689;27;30954311;-83
2022/05/20 06:57:35;;;;;;;26.38;17.75;;;;;;;15.78;87.54;101868.56;5096890;29;20037;-83
2022/05/20 07:05:03;;;;;;;;;;;;;;;;;;;;;
2022/05/20 07:08:19;;;;;;;16.55;14.80;;;;;;;15.98;84.59;101834.03;5037006;29;20063;-84
2022/05/20 08:02:52;;;;;;;13.00;6.28;;;;;;;19.61;59.88;101781.41;5037223;29;20054;-81
2022/05/20 08:31:33;;;;;;;13.23;7.05;;;;;;;21.21;56.93;101749.78;4875868;30;20054;-82
2022/05/20 08:42:11;;;;;;;;;;;;;;;;;;;;;
2022/05/20 09:39:09;;;;;;;16.73;11.50;;;;;;;23.48;51.83;101615.06;4999023;29;20051;-80
2022/05/20 10:03:39;;;;;;;;;;;;;;;;;;;;;
2022/05/20 10:07:03;;;;;;;;;;;;;;;;;;;;;
2022/05/20 10:53:01;;;;;;;;;;;;;;;;;;;;;
2022/05/20 11:21:03;;;;;;;18.70;14.63;;;;;;;24.42;51.21;101286.56;5075901;29;20138;-80
2022/05/20 11:42:11;;;;;;;;;;;;;;;;;;;;;
2022/05/20 11:45:49;;;;;;;24.38;19.58;;;;;;;22.11;59.94;101269.69;5283023;22;20068;-83
2022/05/20 11:53:37;;;;;;;;;;;;;;;;;;;;;
2022/05/20 12:17:18;;;;;;;35.53;31.25;;;;;;;19.81;81.94;101192.56;5176358;28;20042;-83
2022/05/20 12:41:35;;;;;;;45.05;38.00;;;;;;;19.26;89.48;101076.91;4957830;29;20036;-83
2022/05/20 12:44:48;;;;;;;41.03;36.17;;;;;;;19.43;91.56;101070.84;4907654;30;20506;-82
2022/05/20 12:47:33;;;;;;;39.92;35.55;;;;;;;19.89;87.65;101092.56;4907063;30;20451;-82
2022/05/20 12:50:31;;;;;;;45.97;36.90;;;;;;;20.62;84.12;101105.78;4907258;30;20132;-82
2022/05/20 12:53:15;;;;;;;39.70;35.50;;;;;;;21.24;84.54;101119.47;4892188;30;20573;-82
2022/05/20 12:56:12;;;;;;;40.17;34.92;;;;;;;22.12;79.95;101133.34;4892142;30;20053;-82
2022/05/20 12:58:56;;;;;;;38.75;33.50;;;;;;;22.02;76.57;101142.75;4931473;30;20052;-82
2022/05/20 13:02:18;;;;;;;;;;;;;;;;;;;;;
2022/05/20 13:05:42;;;;;;;38.85;33.92;;;;;;;22.03;77.57;101157.75;4944352;30;20148;-83
2022/05/20 13:09:11;;;;;;;39.03;34.17;;;;;;;22.03;79.04;101144.47;5044289;29;20071;-85
2022/05/20 13:12:40;;;;;;;38.55;34.60;;;;;;;22.20;79.50;101159.47;5056648;29;20076;-83
2022/05/20 13:19:41;;;;;;;42.25;37.38;;;;;;;21.38;83.45;101128.47;5018185;29;20081;-84
2022/05/20 13:56:18;;;;;;;26.88;23.92;;;;;;;19.65;94.18;101076.84;5331763;22;28710091;-84
2022/05/20 13:59:14;;;;;;;;;;;;;;;19.58;92.33;101056.94;6544651;22;20098;-85
2022/05/20 14:05:50;;;;;;;;;;;;;;;19.79;92.36;101065.69;6410696;23;20013;-82
2022/05/20 15:30:56;;;;;;;;;;;;;;;;;;;;;
2022/05/20 15:51:59;;;;;;;;;;;;;;;;;;;;;
2022/05/20 16:06:18;;;;;;;;;;;;;;;;;;;;;
2022/05/20 16:27:02;;;;;;;;;;;;;;;;;;;;;
2022/05/20 16:40:28;;;;;;;6.25;4.28;;;;;;;15.62;79.68;101395.72;6192395;24;20052;-82
2022/05/20 16:43:06;;;;;;;4.15;3.15;;;;;;;15.38;80.76;101412.06;6137796;24;20671;-81
2022/05/20 16:45:38;;;;;;;5.32;3.47;;;;;;;15.18;82.36;101405.47;6194277;23;20020;-81
2022/05/20 16:48:35;;;;;;;4.07;2.95;;;;;;;15.07;83.20;101412.72;6192803;24;20164;-83
2022/05/20 16:51:15;;;;;;;4.07;3.60;;;;;;;14.80;83.63;101417.69;6183120;24;20097;-83
2022/05/20 16:54:26;;;;;;;5.45;3.45;;;;;;;14.77;84.21;101423.84;6158829;24;20464;-83
2022/05/20 17:03:56;;;;;;;8.33;7.40;;;;;;;14.24;86.80;101454.53;6265846;23;20018;-82
2022/05/20 17:06:32;;;;;;;8.47;7.57;;;;;;;14.05;87.61;101459.22;6344890;23;20250;-82
2022/05/20 17:09:04;;;;;;;12.65;7.25;;;;;;;13.93;87.91;101465.53;6342515;23;20432;-82
2022/05/20 17:11:36;;;;;;;10.00;6.53;;;;;;;13.84;87.96;101477.00;6342590;23;20020;-82
2022/05/20 17:17:10;;;;;;;8.75;7.80;;;;;;;13.84;86.34;101470.91;6343209;23;20018;-84
2022/05/20 17:19:41;;;;;;;8.90;6.82;;;;;;;13.97;86.52;101490.78;6342286;23;20030;-83
2022/05/20 17:25:16;;;;;;;10.07;7.15;;;;;;;13.99;86.67;101504.75;6342117;23;20254;-82
2022/05/20 17:28:19;;;;;;;12.50;8.73;;;;;;;13.86;86.59;101513.69;6329610;23;20133;-82
2022/05/20 17:38:08;;;;;;;17.42;12.10;;;;;;;13.49;87.45;101536.03;6247372;23;20027;-83
2022/05/20 17:41:08;;;;;;;14.48;11.45;;;;;;;13.59;87.60;101539.41;6231550;23;20059;-84
2022/05/20 17:44:11;;;;;;;16.58;11.55;;;;;;;13.54;87.90;101538.59;6169825;24;20063;-86
2022/05/20 17:50:02;;;;;;;;;;;;;;;13.55;87.92;101563.03;6196214;24;20459;-86
2022/05/20 17:52:39;;;;;;;20.60;10.60;;;;;;;13.39;88.49;101560.59;6195145;24;20265;-83
2022/05/20 17:55:59;;;;;;;12.10;8.95;;;;;;;13.43;88.77;101564.06;6194201;24;20016;-87
2022/05/20 17:59:30;;;;;;;13.88;10.23;;;;;;;13.28;88.99;101573.78;6199397;23;20021;-84
2022/05/20 18:05:50;;;;;;;13.00;7.53;;;;;;;13.35;88.87;101578.97;6136636;23;20017;-86
2022/05/20 18:15:30;;;;;;;11.57;4.32;;;;;;;13.31;84.89;101565.91;6190165;24;20228;-84
2022/05/20 18:18:06;;;;;;;14.52;3.95;;;;;;;13.44;84.95;101548.31;6221845;24;20675;-81
2022/05/20 18:20:42;;;;;;;10.48;5.28;;;;;;;13.48;84.26;101567.47;6244710;23;20023;-84
2022/05/20 18:23:27;;;;;;;8.52;3.63;;;;;;;13.53;84.10;101559.56;6280198;23;20477;-81
2022/05/20 18:30:17;;;;;;;8.20;3.08;;;;;;;13.62;84.28;101564.66;6196426;24;20016;-82
2022/05/20 18:33:03;;;;;;;7.72;2.97;;;;;;;13.47;82.86;101557.88;6190102;24;20045;-83
2022/05/20 18:42:08;;;;;;;8.43;3.38;;;;;;;15.24;74.52;101593.59;6282656;23;20019;-84
2022/05/20 18:44:39;;;;;;;9.57;2.75;;;;;;;15.95;71.90;101598.28;6259242;23;20015;-82
2022/05/20 18:47:11;;;;;;;8.83;3.20;;;;;;;15.78;70.26;101603.91;6283508;23;20488;-81
2022/05/20 18:49:42;;;;;;;6.43;2.50;;;;;;;14.68;73.70;101614.72;6258931;23;20462;-84
2022/05/20 18:52:40;;;;;;;8.03;3.27;;;;;;;13.81;77.79;101615.09;6281704;23;20011;-85
2022/05/20 18:55:27;;;;;;;8.07;3.25;;;;;;;13.29;80.61;101617.41;6283422;23;20055;-84
2022/05/20 18:58:02;;;;;;;12.60;3.13;;;;;;;12.89;83.02;101625.66;6264130;23;20011;-83
2022/05/20 19:07:51;;;;;;;12.10;3.60;;;;;;;12.69;84.25;101627.59;6440878;23;20019;-83
2022/05/20 19:10:57;;;;;;;;;;;;;;;;;;;;;
2022/05/20 19:37:29;;;;;;;9.18;2.78;;;;;;;12.33;85.70;101676.63;6295827;23;20015;-82
2022/05/20 19:40:04;;;;;;;11.27;3.10;;;;;;;12.26;85.55;101677.56;6318887;23;20021;-87
2022/05/20 19:43:08;;;;;;;9.35;2.78;;;;;;;12.26;85.86;101688.88;6343974;23;20010;-85
2022/05/20 19:55:15;;;;;;;10.52;2.75;;;;;;;12.23;86.63;101709.78;6565930;22;20038;-86
2022/05/20 20:02:20;;;;;;;9.38;2.78;;;;;;;11.93;88.25;101729.97;6497598;22;20042;-85
2022/05/20 20:09:17;;;;;;;8.57;3.63;;;;;;;11.84;88.64;101733.44;6433834;23;20390;-84
2022/05/20 20:16:10;;;;;;;;;;;;;;;;;;;;;
2022/05/20 20:20:11;;;;;;;8.38;3.38;;;;;;;11.66;90.36;101730.88;6280905;23;20426;-86
2022/05/20 20:26:12;;;;;;;9.30;3.60;;;;;;;11.55;92.04;101738.72;6167088;23;20044;-83
2022/05/20 20:28:55;;;;;;;14.07;4.00;;;;;;;11.50;92.71;101750.91;6143275;24;20190;-86
2022/05/20 20:31:59;;;;;;;7.60;3.58;;;;;;;11.52;92.37;101753.53;6092435;24;20411;-84
2022/05/20 20:39:05;;;;;;;10.07;3.50;;;;;;;11.39;92.58;101755.28;6139082;23;20078;-86
2022/05/20 20:46:02;;;;;;;7.10;3.70;;;;;;;11.44;92.34;101769.19;6014779;24;20027;-84
2022/05/20 20:52:33;;;;;;;6.85;4.18;;;;;;;11.32;92.12;101776.16;5998530;24;20015;-84
2022/05/20 20:59:17;;;;;;;8.93;4.20;;;;;;;11.23;91.89;101772.69;5965586;24;20019;-83
2022/05/20 21:02:53;;;;;;;;;;;;;;;;;;;;;
2022/05/20 21:05:27;;;;;;;10.85;4.07;;;;;;;11.12;92.23;101789.22;6090526;24;20085;-85
2022/05/20 21:08:21;;;;;;;9.68;3.70;;;;;;;11.16;92.13;101804.84;6111223;24;20022;-85
2022/05/20 21:20:27;;;;;;;;;;;;;;;;;;;;;
2022/05/20 21:23:22;;;;;;;7.47;4.45;;;;;;;10.96;93.08;101813.53;6462378;22;20082;-83
2022/05/20 21:25:54;;;;;;;8.60;4.50;;;;;;;10.95;93.12;101817.03;6515814;22;20037;-82
2022/05/20 21:28:25;;;;;;;9.00;5.50;;;;;;;10.80;93.39;101796.97;6563670;22;20322;-81
2022/05/20 21:30:58;;;;;;;9.70;4.90;;;;;;;10.86;93.65;101819.59;6564187;22;20045;-81
2022/05/20 21:33:30;;;;;;;;;;;;;;;10.81;93.63;101822.19;6538081;22;20003;-82
2022/05/20 21:36:01;;;;;;;9.02;4.85;;;;;;;10.80;93.89;101815.22;6536067;22;19918;-83
2022/05/20 21:38:35;;;;;;;10.60;4.93;;;;;;;10.71;93.78;101816.06;6562887;22;20014;-79
2022/05/20 21:41:07;;;;;;;12.50;5.53;;;;;;;10.74;94.59;101823.91;6563882;22;20045;-80
2022/05/20 21:43:38;;;;;;;9.73;5.13;;;;;;;10.74;94.56;101829.13;6566432;22;20424;-82
2022/05/20 21:49:00;;;;;;;9.57;4.85;;;;;;;10.61;95.17;101836.88;6565413;22;20011;-82
2022/05/20 21:51:31;;;;;;;8.60;5.23;;;;;;;10.57;95.13;101836.88;6566173;22;20007;-80
2022/05/20 21:54:02;;;;;;;8.70;5.00;;;;;;;10.54;95.43;101826.44;6572987;22;20092;-80
2022/05/20 21:56:34;;;;;;;9.17;5.13;;;;;;;10.48;95.51;101822.94;6572096;22;19999;-82
2022/05/20 21:59:09;;;;;;;9.97;5.50;;;;;;;10.48;95.41;101821.22;6564631;22;20314;-82
2022/05/20 22:10:17;;;;;;;8.05;5.18;;;;;;;10.38;95.64;101828.13;6563569;22;20019;-83
2022/05/20 22:12:49;;;;;;;9.95;5.40;;;;;;;10.33;95.89;101827.22;6563351;22;20327;-82
2022/05/20 22:15:24;;;;;;;8.23;4.73;;;;;;;10.35;95.77;101824.59;6563350;22;20004;-82
2022/05/20 22:17:56;;;;;;;10.65;5.70;;;;;;;10.29;95.54;101820.22;6562689;22;20009;-81
2022/05/20 22:20:28;;;;;;;8.47;5.53;;;;;;;10.28;96.02;101820.22;6536311;22;20022;-80
2022/05/20 22:23:00;;;;;;;9.43;5.63;;;;;;;10.25;95.74;101821.06;6563208;22;20037;-81
2022/05/20 22:25:31;;;;;;;9.03;5.77;;;;;;;10.23;95.96;101817.56;6563494;22;20007;-82
2022/05/20 22:28:03;;;;;;;9.23;5.33;;;;;;;10.23;95.79;101817.56;6562887;22;20008;-80
2022/05/20 22:30:34;;;;;;;12.00;5.50;;;;;;;10.20;95.89;101821.03;6562651;22;20003;-81
2022/05/20 22:33:06;;;;;;;11.53;6.13;;;;;;;10.19;96.17;101819.31;6563188;22;19999;-82
2022/05/20 22:35:37;;;;;;;11.47;5.97;;;;;;;10.14;96.24;101821.03;6563309;22;20368;-81
2022/05/20 22:38:09;;;;;;;10.13;6.77;;;;;;;10.11;95.98;101817.50;6561892;22;20408;-81
2022/05/20 22:40:41;;;;;;;9.93;6.00;;;;;;;10.12;96.24;101816.66;6562558;22;20007;-80
2022/05/20 22:43:13;;;;;;;;;;;;;;;10.08;96.05;101817.47;6562792;22;20025;-82
2022/05/20 22:45:46;;;;;;;12.02;6.47;;;;;;;10.11;96.37;101820.09;6510096;22;19912;-82
2022/05/20 22:48:18;;;;;;;10.52;7.13;;;;;;;10.11;96.57;101825.31;6563731;22;20035;-81
2022/05/20 22:50:50;;;;;;;10.83;8.33;;;;;;;10.09;96.75;101819.25;6564061;22;20332;-80
2022/05/20 22:53:21;;;;;;;9.25;8.25;;;;;;;10.08;97.05;101831.41;6537667;22;20054;-80
2022/05/20 22:56:05;;;;;;;11.30;8.30;;;;;;;10.10;96.64;101823.59;6565734;22;20008;-80
2022/05/20 22:58:39;;;;;;;10.82;8.70;;;;;;;10.03;97.37;101818.34;6540463;22;20011;-80
2022/05/20 23:01:23;;;;;;;11.30;9.65;;;;;;;10.09;97.26;101825.31;6564005;22;20011;-81
2022/05/20 23:03:55;;;;;;;10.50;8.88;;;;;;;10.08;97.41;101825.28;6563143;22;20491;-80
2022/05/20 23:06:27;;;;;;;16.60;9.80;;;;;;;10.08;97.29;101822.69;6536291;22;20014;-82
2022/05/20 23:09:02;;;;;;;14.07;9.77;;;;;;;10.08;97.82;101830.50;6564427;22;20007;-80
2022/05/20 23:11:38;;;;;;;14.40;11.02;;;;;;;10.06;98.25;101819.22;6563311;22;20007;-81
2022/05/20 23:14:09;;;;;;;13.90;10.52;;;;;;;10.10;98.13;101821.00;6563386;22;20007;-81
2022/05/20 23:16:41;;;;;;;13.80;12.40;;;;;;;10.09;98.13;101827.06;6564363;22;20447;-81
2022/05/20 23:19:12;;;;;;;13.93;11.03;;;;;;;10.17;98.19;101826.22;6535177;22;20630;-81
2022/05/20 23:21:43;;;;;;;14.80;13.07;;;;;;;10.17;98.16;101825.34;6562728;22;20004;-81
2022/05/20 23:24:15;;;;;;;13.23;11.83;;;;;;;10.14;97.89;101815.81;6563578;22;20003;-81
2022/05/20 23:26:46;;;;;;;16.57;13.10;;;;;;;10.20;97.72;101817.56;6563976;22;20007;-81
2022/05/20 23:29:21;;;;;;;13.53;11.80;;;;;;;10.22;97.64;101823.66;6563677;22;20007;-81
2022/05/20 23:31:55;;;;;;;13.48;11.73;;;;;;;10.25;97.81;101818.44;6564041;22;20003;-80
2022/05/20 23:34:26;;;;;;;12.05;10.80;;;;;;;10.30;97.22;101823.69;6565497;22;20014;-80
2022/05/20 23:36:57;;;;;;;15.50;11.80;;;;;;;10.31;96.87;101809.81;6564817;22;20000;-80
2022/05/20 23:39:29;;;;;;;14.50;11.67;;;;;;;10.39;97.00;101829.84;6563860;22;20011;-81
2022/05/20 23:42:03;;;;;;;13.07;11.70;;;;;;;10.37;96.92;101830.72;6565831;22;20858;-80
2022/05/20 23:44:43;;;;;;;12.40;11.10;;;;;;;10.34;96.85;101820.28;6570523;22;20003;-80
2022/05/20 23:47:20;;;;;;;15.70;11.05;;;;;;;10.31;96.87;101813.28;6563329;22;20055;-79
2022/05/20 23:49:52;;;;;;;11.80;10.50;;;;;;;10.32;96.71;101817.66;6556845;22;20011;-79
2022/05/20 23:52:23;;;;;;;11.67;10.57;;;;;;;10.34;96.40;101813.31;6586023;22;19999;-79
2022/05/20 23:57:45;;;;;;;11.73;10.48;;;;;;;10.39;95.79;101810.75;6572241;22;20015;-81
